Time;durP1;ratioP1;P1;durP2;ratioP2;P2;SDS_P1;SDS_P2;PMS_P1;PMS_P2;Temp;Humidity;BMP_temperature;BMP_pressure;BME280_temperature;BME280_humidity;BME280_pressure;Samples;Min_cycle;Max_cycle;Signal;HPM_P1;HPM_P2
2022/12/25 00:02:13;;;;;;;48.88;19.52;;;;;;;8.07;100.00;101206.59;4995308;28;20061;-74
2022/12/25 00:04:40;;;;;;;43.92;18.27;;;;;;;8.07;100.00;101207.34;4996375;28;20069;-73
2022/12/25 00:07:06;;;;;;;40.70;16.33;;;;;;;8.13;100.00;101210.59;4995608;28;20055;-75
2022/12/25 00:09:33;;;;;;;40.40;16.00;;;;;;;8.15;100.00;101202.75;4990428;28;20053;-74
2022/12/25 00:11:59;;;;;;;42.63;17.00;;;;;;;8.17;100.00;101214.22;4997823;28;20049;-73
2022/12/25 00:14:26;;;;;;;43.35;17.42;;;;;;;8.22;100.00;101202.09;4985951;28;20161;-73
2022/12/25 00:16:52;;;;;;;43.38;17.42;;;;;;;8.23;100.00;101201.75;4988979;28;20515;-73
2022/12/25 00:19:19;;;;;;;45.25;19.85;;;;;;;8.26;100.00;101203.75;4995456;28;20741;-73
2022/12/25 00:21:45;;;;;;;39.58;17.98;;;;;;;8.25;100.00;101210.44;4994266;28;20052;-73
2022/12/25 00:24:12;;;;;;;36.20;16.35;;;;;;;8.22;100.00;101211.19;4991566;28;20049;-73
2022/12/25 00:26:38;;;;;;;36.75;15.88;;;;;;;8.23;100.00;101212.75;4987323;28;20100;-74
2022/12/25 00:29:04;;;;;;;42.28;16.58;;;;;;;8.25;100.00;101210.44;4991195;28;20053;-74
2022/12/25 00:31:33;;;;;;;36.25;14.13;;;;;;;8.29;100.00;101208.53;4997953;28;20240;-74
2022/12/25 00:33:59;;;;;;;44.20;13.98;;;;;;;8.32;100.00;101201.47;4993576;28;20049;-74
2022/12/25 00:36:26;;;;;;;43.47;16.42;;;;;;;8.32;100.00;101198.72;4992566;28;20054;-74
2022/12/25 00:38:53;;;;;;;35.42;14.10;;;;;;;8.30;100.00;101192.81;4992656;28;20046;-73
2022/12/25 00:42:17;;;;;;;32.17;14.88;;;;;;;8.36;100.00;101191.28;4999701;28;20812;-74
2022/12/25 00:44:12;;;;;;;34.28;13.55;;;;;;;8.32;100.00;101171.97;4999829;28;20152;-73
2022/12/25 00:46:39;;;;;;;36.85;14.45;;;;;;;8.35;100.00;101182.25;4993155;28;20832;-73
2022/12/25 00:49:06;;;;;;;39.53;13.57;;;;;;;8.35;100.00;101176.72;4999404;28;20136;-73
2022/12/25 00:51:32;;;;;;;30.13;12.50;;;;;;;8.35;100.00;101182.25;4984207;28;20058;-73
2022/12/25 00:53:59;;;;;;;35.35;13.30;;;;;;;8.37;100.00;101190.94;4993835;28;20064;-73
2022/12/25 00:56:26;;;;;;;32.97;13.80;;;;;;;8.33;100.00;101187.31;4989707;28;20058;-74
2022/12/25 00:58:53;;;;;;;38.00;14.15;;;;;;;8.33;100.00;101192.06;4989434;28;20050;-74
2022/12/25 01:01:20;;;;;;;38.78;14.10;;;;;;;8.36;100.00;101194.84;5015783;28;20042;-73
2022/12/25 01:03:46;;;;;;;38.85;14.02;;;;;;;8.38;100.00;101191.72;5017127;28;20049;-73
2022/12/25 01:06:13;;;;;;;36.72;13.38;;;;;;;8.40;100.00;101198.47;5011815;28;20049;-74
2022/12/25 01:10:21;;;;;;;33.70;12.10;;;;;;;8.37;100.00;101193.69;5014992;28;20090;-72
2022/12/25 01:11:31;;;;;;;37.83;14.80;;;;;;;8.41;100.00;101191.81;5017700;28;20096;-72
2022/12/25 01:13:57;;;;;;;37.25;15.05;;;;;;;8.42;100.00;101182.34;5016476;28;20129;-71
2022/12/25 01:16:24;;;;;;;30.90;13.98;;;;;;;8.45;100.00;101180.81;5019588;28;20059;-74
2022/12/25 01:18:51;;;;;;;31.50;12.10;;;;;;;8.47;100.00;101178.47;5018263;28;20527;-72
2022/12/25 01:21:20;;;;;;;29.73;11.88;;;;;;;8.46;100.00;101185.16;5024303;28;20061;-74
2022/12/25 01:23:48;;;;;;;33.20;11.50;;;;;;;8.47;100.00;101181.25;5023527;28;20141;-73
2022/12/25 01:26:16;;;;;;;32.42;12.82;;;;;;;8.50;100.00;101178.53;5018334;28;20050;-73
2022/12/25 01:28:42;;;;;;;32.42;12.23;;;;;;;8.53;100.00;101179.72;5015611;28;20057;-73
2022/12/25 01:31:12;;;;;;;29.20;10.98;;;;;;;8.52;100.00;101173.44;5017941;28;20057;-73
2022/12/25 01:33:39;;;;;;;34.92;11.35;;;;;;;8.52;100.00;101167.91;5006775;28;20074;-75
2022/12/25 01:36:22;;;;;;;33.88;12.38;;;;;;;8.59;100.00;101170.78;5018557;28;20056;-75
2022/12/25 01:38:49;;;;;;;33.70;10.65;;;;;;;8.61;100.00;101173.94;5017891;28;20528;-74
2022/12/25 01:41:18;;;;;;;24.92;10.27;;;;;;;8.60;100.00;101172.38;5025059;28;20140;-73
2022/12/25 01:44:07;;;;;;;29.42;8.00;;;;;;;8.68;100.00;101170.50;5026137;28;20045;-73
2022/12/25 01:46:34;;;;;;;21.90;7.13;;;;;;;8.84;100.00;101171.13;5023180;28;20061;-72
2022/12/25 01:49:04;;;;;;;21.50;7.47;;;;;;;8.92;100.00;101172.78;5025122;28;20049;-71
2022/12/25 01:51:41;;;;;;;18.40;5.80;;;;;;;9.04;100.00;101164.28;5017818;28;20662;-72
2022/12/25 01:54:12;;;;;;;24.55;5.70;;;;;;;9.12;100.00;101171.47;5014541;28;20038;-70
2022/12/25 01:56:42;;;;;;;17.35;5.82;;;;;;;9.21;100.00;101161.72;5010071;28;20050;-74
2022/12/25 01:59:11;;;;;;;26.15;5.68;;;;;;;9.30;100.00;101169.69;5014246;28;20056;-73
2022/12/25 02:01:38;;;;;;;20.00;5.28;;;;;;;9.37;100.00;101164.25;5015150;28;20054;-74
2022/12/25 02:04:14;;;;;;;19.38;5.25;;;;;;;9.41;100.00;101173.38;5020424;28;20461;-72
2022/12/25 02:06:41;;;;;;;18.48;5.40;;;;;;;9.45;100.00;101185.28;5023238;28;20049;-72
2022/12/25 02:09:07;;;;;;;19.77;5.40;;;;;;;9.46;100.00;101187.66;5026683;28;20056;-75
2022/12/25 02:14:19;;;;;;;20.33;5.90;;;;;;;9.54;100.00;101189.31;5016517;28;20100;-73
2022/12/25 02:16:50;;;;;;;17.20;6.05;;;;;;;9.57;100.00;101188.56;5019256;28;20068;-72
2022/12/25 02:19:49;;;;;;;15.27;5.15;;;;;;;9.61;100.00;101180.28;5026553;28;20072;-73
2022/12/25 02:22:43;;;;;;;16.83;4.57;;;;;;;9.69;100.00;101188.25;5019494;28;20060;-73
2022/12/25 02:25:38;;;;;;;15.65;4.90;;;;;;;9.75;100.00;101188.72;5014567;28;20057;-73
2022/12/25 02:28:25;;;;;;;15.70;4.40;;;;;;;9.77;100.00;101181.66;5026763;28;20053;-72
2022/12/25 02:31:00;;;;;;;16.52;4.18;;;;;;;9.81;100.00;101190.75;5020733;28;20051;-73
2022/12/25 02:34:02;;;;;;;16.48;4.40;;;;;;;9.84;100.00;101183.69;5013011;28;20045;-71
2022/12/25 02:36:44;;;;;;;17.15;3.90;;;;;;;9.91;100.00;101203.88;5010820;28;20140;-74
2022/12/25 02:42:15;;;;;;;11.75;3.88;;;;;;;9.94;100.00;101197.59;5020199;28;20124;-74
2022/12/25 03:07:07;;;;;;;12.43;4.03;;;;;;;10.17;100.00;101205.72;5028377;28;20530;-75
2022/12/25 03:13:05;;;;;;;12.65;4.28;;;;;;;10.16;100.00;101206.91;5018106;28;20072;-74
2022/12/25 03:18:23;;;;;;;14.00;3.95;;;;;;;10.17;100.00;101198.22;5009392;28;20508;-73
2022/12/25 03:31:10;;;;;;;14.43;3.42;;;;;;;10.13;100.00;101189.09;5017716;28;20415;-72
2022/12/25 03:32:18;;;;;;;11.88;3.80;;;;;;;10.10;100.00;101184.31;5024944;28;20057;-74
2022/12/25 04:38:38;;;;;;;8.10;2.67;;;;;;;10.46;100.00;101110.69;5015831;28;20053;-72
2022/12/25 04:41:06;;;;;;;10.38;3.80;;;;;;;10.45;100.00;101111.88;5013470;28;20300;-73
2022/12/25 04:43:32;;;;;;;12.48;3.40;;;;;;;10.45;100.00;101123.75;5022936;28;20053;-73
2022/12/25 04:46:00;;;;;;;8.45;2.60;;;;;;;10.39;100.00;101128.03;5019394;28;20079;-72
2022/12/25 04:48:29;;;;;;;18.00;3.63;;;;;;;10.40;100.00;101131.63;5016672;28;20053;-72
2022/12/25 04:50:55;;;;;;;11.25;3.53;;;;;;;10.38;100.00;101134.78;5025809;28;20052;-72
2022/12/25 04:53:22;;;;;;;7.93;3.08;;;;;;;10.40;100.00;101132.41;5033759;28;20049;-72
2022/12/25 04:55:48;;;;;;;7.95;3.03;;;;;;;10.40;100.00;101126.09;5018011;28;20060;-72
2022/12/25 04:58:15;;;;;;;9.52;3.20;;;;;;;10.37;100.00;101122.09;5020936;28;20045;-75
2022/12/25 05:00:41;;;;;;;10.52;3.15;;;;;;;10.33;100.00;101107.47;5023913;28;20132;-72
2022/12/25 05:03:08;;;;;;;15.32;3.38;;;;;;;10.32;100.00;101108.66;5010796;28;20049;-71
2022/12/25 05:05:38;;;;;;;14.10;3.50;;;;;;;10.28;100.00;101107.84;5023631;28;20496;-72
2022/12/25 05:08:05;;;;;;;13.18;3.60;;;;;;;10.25;100.00;101103.06;5013785;28;20052;-72
2022/12/25 05:10:31;;;;;;;13.02;3.90;;;;;;;10.24;100.00;101098.72;5013173;28;20064;-72
2022/12/25 05:12:58;;;;;;;11.10;3.38;;;;;;;10.19;100.00;101110.13;5001134;28;20496;-72
2022/12/25 05:15:24;;;;;;;12.00;4.38;;;;;;;10.20;100.00;101102.66;5021136;28;20475;-73
2022/12/25 05:17:51;;;;;;;8.23;3.00;;;;;;;10.16;100.00;101102.59;5017007;28;20420;-72
2022/12/25 05:20:17;;;;;;;11.15;3.25;;;;;;;10.17;100.00;101106.94;5010471;28;20049;-72
2022/12/25 05:22:44;;;;;;;14.13;3.38;;;;;;;10.17;100.00;101106.94;5009189;28;20049;-70
2022/12/25 05:25:10;;;;;;;14.60;4.30;;;;;;;10.16;100.00;101107.38;5022813;28;20038;-74
2022/12/25 05:27:36;;;;;;;10.18;3.35;;;;;;;10.15;100.00;101098.25;5023494;28;20058;-74
2022/12/25 05:30:03;;;;;;;9.35;3.13;;;;;;;10.14;100.00;101104.19;5030109;28;20511;-72
2022/12/25 05:32:30;;;;;;;13.70;3.90;;;;;;;10.13;100.00;101099.84;5018282;28;20099;-72
2022/12/25 05:34:59;;;;;;;15.13;3.70;;;;;;;10.09;100.00;101096.22;5020125;28;20066;-72
2022/12/25 05:37:25;;;;;;;9.45;3.35;;;;;;;10.03;100.00;101090.25;5012098;28;20814;-72
2022/12/25 05:39:52;;;;;;;12.95;2.90;;;;;;;10.05;100.00;101096.19;5012173;28;20054;-72
2022/12/25 05:42:18;;;;;;;12.93;3.50;;;;;;;10.03;100.00;101095.00;5012991;28;20050;-72
2022/12/25 05:44:45;;;;;;;13.68;3.67;;;;;;;9.98;100.00;101096.13;5027261;28;20052;-72
2022/12/25 05:47:11;;;;;;;10.50;4.10;;;;;;;9.93;100.00;101098.47;5020661;28;20053;-72
2022/12/25 05:49:38;;;;;;;12.82;3.58;;;;;;;9.89;100.00;101101.19;5025629;28;20435;-72
2022/12/25 05:52:04;;;;;;;11.20;4.10;;;;;;;9.81;100.00;101099.56;5017121;28;20503;-72
2022/12/25 05:54:31;;;;;;;14.90;4.50;;;;;;;9.75;100.00;101086.47;5025411;28;20391;-73
2022/12/25 05:56:57;;;;;;;18.55;4.43;;;;;;;9.68;100.00;101098.28;5028622;28;20064;-73
2022/12/25 05:59:24;;;;;;;13.40;4.78;;;;;;;9.58;100.00;101087.09;5019187;28;20050;-73
2022/12/25 06:01:50;;;;;;;14.18;4.00;;;;;;;9.50;100.00;101075.22;5016668;28;20050;-73
2022/12/25 06:04:17;;;;;;;13.75;3.78;;;;;;;9.48;100.00;101079.53;5011608;28;20969;-73
2022/12/25 06:06:43;;;;;;;14.65;4.10;;;;;;;9.44;100.00;101090.56;5021309;28;20637;-72
2022/12/25 06:09:10;;;;;;;13.60;4.35;;;;;;;9.35;100.00;101092.81;5030000;28;20075;-73
2022/12/25 06:11:37;;;;;;;12.25;4.10;;;;;;;9.39;100.00;101093.66;5023157;28;20050;-73
2022/12/25 06:14:04;;;;;;;12.50;4.30;;;;;;;9.41;100.00;101087.75;5020549;28;20045;-73
2022/12/25 06:16:31;;;;;;;20.52;6.28;;;;;;;9.37;100.00;101082.19;5023120;28;20049;-75
2022/12/25 06:19:03;;;;;;;13.73;4.53;;;;;;;9.38;100.00;101078.25;5018166;28;20042;-72
2022/12/25 06:21:30;;;;;;;17.92;4.35;;;;;;;9.36;100.00;101077.88;5015535;28;20046;-73
2022/12/25 06:23:59;;;;;;;15.35;4.75;;;;;;;9.33;100.00;101056.53;5012161;28;20053;-73
2022/12/25 06:26:25;;;;;;;13.60;4.90;;;;;;;9.29;100.00;101061.22;5030163;28;20701;-73
2022/12/25 06:28:52;;;;;;;10.95;4.30;;;;;;;9.31;100.00;101058.88;5012773;28;20046;-73
2022/12/25 06:31:21;;;;;;;20.85;4.47;;;;;;;9.41;100.00;101063.69;5013219;28;20054;-73
2022/12/25 06:33:48;;;;;;;17.17;4.25;;;;;;;9.53;100.00;101051.56;5017249;28;20120;-73
2022/12/25 06:36:21;;;;;;;16.40;4.50;;;;;;;9.58;100.00;101056.72;5013106;28;20578;-73
2022/12/25 06:38:47;;;;;;;22.02;5.10;;;;;;;9.65;100.00;101046.53;5016749;28;20054;-73
2022/12/25 06:41:16;;;;;;;17.05;4.18;;;;;;;9.71;100.00;101049.72;5008845;28;20058;-72
2022/12/25 06:43:50;;;;;;;15.65;4.53;;;;;;;9.79;100.00;101038.34;5020503;28;20134;-72
2022/12/25 06:46:18;;;;;;;14.35;4.55;;;;;;;9.83;100.00;101028.09;5013453;28;20045;-74
2022/12/25 06:48:48;;;;;;;12.15;3.80;;;;;;;9.85;100.00;101031.28;5018241;28;20049;-73
2022/12/25 06:51:29;;;;;;;11.48;3.70;;;;;;;9.86;100.00;101024.56;5006712;28;20052;-73
2022/12/25 06:53:57;;;;;;;14.98;3.55;;;;;;;9.89;100.00;101029.34;5015593;28;20058;-73
2022/12/25 06:56:26;;;;;;;13.07;4.60;;;;;;;9.91;100.00;101032.50;5023220;28;20046;-74
2022/12/25 06:59:01;;;;;;;11.75;4.10;;;;;;;9.90;100.00;101025.41;5010140;28;20057;-72
2022/12/25 07:01:57;;;;;;;;;;;;;;;9.95;100.00;101036.09;5024261;28;20064;-72
2022/12/25 07:04:39;;;;;;;13.68;3.90;;;;;;;9.97;100.00;101028.22;5009491;28;20000;-71
2022/12/25 07:07:07;;;;;;;15.50;3.85;;;;;;;9.94;100.00;101015.16;5019138;28;20056;-72
2022/12/25 07:09:37;;;;;;;14.75;3.60;;;;;;;9.97;100.00;101014.41;5014337;28;20053;-72
2022/12/25 07:12:19;;;;;;;17.23;4.00;;;;;;;9.95;100.00;101015.94;5013021;28;20050;-77
2022/12/25 07:14:48;;;;;;;11.65;3.53;;;;;;;9.97;100.00;101006.09;5018672;28;20108;-73
2022/12/25 07:17:16;;;;;;;12.57;4.00;;;;;;;10.02;100.00;101004.91;5014143;28;20049;-73
2022/12/25 07:19:42;;;;;;;11.10;3.28;;;;;;;9.99;100.00;100995.44;5010812;28;20058;-73
2022/12/25 07:22:11;;;;;;;12.55;3.25;;;;;;;10.01;100.00;100986.75;5009549;28;20059;-74
2022/12/25 07:24:37;;;;;;;16.73;3.72;;;;;;;10.09;100.00;100980.09;5028565;28;20068;-74
2022/12/25 07:27:04;;;;;;;13.52;4.28;;;;;;;10.12;100.00;100979.34;5014712;28;20056;-72
2022/12/25 07:29:31;;;;;;;15.63;3.75;;;;;;;10.10;100.00;100981.72;5014877;28;20054;-74
2022/12/25 07:31:57;;;;;;;17.85;3.30;;;;;;;10.14;100.00;100985.28;5011956;28;20057;-73
2022/12/25 07:34:24;;;;;;;11.48;3.63;;;;;;;10.17;100.00;100978.97;5014977;28;20527;-74
2022/12/25 07:36:51;;;;;;;13.68;3.42;;;;;;;10.13;100.00;100962.34;5013704;28;20064;-74
2022/12/25 07:39:17;;;;;;;16.85;3.63;;;;;;;10.15;100.00;100971.06;5020445;28;20064;-73
2022/12/25 07:41:44;;;;;;;16.52;3.35;;;;;;;10.14;100.00;100969.50;5011054;28;20053;-72
2022/12/25 07:44:10;;;;;;;13.05;3.10;;;;;;;10.17;100.00;100974.22;5002037;28;20825;-75
2022/12/25 07:46:37;;;;;;;16.08;3.45;;;;;;;10.21;100.00;100986.13;5009425;28;20053;-69
2022/12/25 07:49:03;;;;;;;15.40;3.83;;;;;;;10.27;100.00;100995.59;5010497;28;20053;-72
2022/12/25 07:51:30;;;;;;;11.75;3.40;;;;;;;10.33;100.00;101004.34;5013526;28;20372;-73
2022/12/25 07:53:56;;;;;;;10.45;3.33;;;;;;;10.41;100.00;100992.91;5012333;28;20066;-74
2022/12/25 07:56:23;;;;;;;12.38;3.45;;;;;;;10.47;100.00;100976.72;5011506;28;20042;-73
2022/12/25 07:58:49;;;;;;;8.48;3.15;;;;;;;10.43;100.00;100962.88;5011430;28;20630;-77
2022/12/25 08:01:19;;;;;;;11.93;3.22;;;;;;;10.44;100.00;100952.63;5007737;28;20535;-73
2022/12/25 08:03:52;;;;;;;15.38;3.45;;;;;;;10.43;100.00;100954.56;5010021;28;20054;-74
2022/12/25 08:06:20;;;;;;;19.77;3.25;;;;;;;10.43;100.00;100954.56;5012566;28;20048;-74
2022/12/25 08:08:47;;;;;;;13.38;3.60;;;;;;;10.47;100.00;100962.91;5017026;28;20132;-75
2022/12/25 08:11:14;;;;;;;8.38;2.78;;;;;;;10.45;100.00;100951.44;5022901;28;20460;-75
2022/12/25 08:13:41;;;;;;;13.45;3.17;;;;;;;10.44;100.00;100936.00;4995954;28;20046;-73
2022/12/25 08:16:09;;;;;;;10.63;3.60;;;;;;;10.49;100.00;100941.97;5011618;28;20584;-74
2022/12/25 08:18:37;;;;;;;13.52;3.58;;;;;;;10.50;100.00;100943.53;5008493;28;20187;-74
2022/12/25 08:21:06;;;;;;;24.77;6.15;;;;;;;10.56;100.00;100955.00;5007498;28;20091;-74
2022/12/25 08:23:34;;;;;;;14.70;3.17;;;;;;;10.57;100.00;100964.91;5013273;28;20064;-75
2022/12/25 08:26:01;;;;;;;15.15;3.25;;;;;;;10.56;100.00;100968.06;5012247;28;20080;-74
2022/12/25 08:28:32;;;;;;;11.43;3.60;;;;;;;10.60;100.00;100975.19;5008107;28;20061;-75
2022/12/25 08:30:59;;;;;;;26.38;6.05;;;;;;;10.65;100.00;100972.03;5002409;28;20050;-73
2022/12/25 08:33:25;;;;;;;18.38;5.60;;;;;;;10.66;100.00;100970.06;5007836;28;20071;-73
2022/12/25 08:35:52;;;;;;;11.65;3.67;;;;;;;10.68;100.00;100987.06;4997820;28;20547;-73
2022/12/25 08:38:18;;;;;;;14.43;4.28;;;;;;;10.67;100.00;100996.56;5007191;28;20066;-73
2022/12/25 08:40:45;;;;;;;31.77;10.18;;;;;;;10.70;100.00;100990.25;5005807;28;20054;-73
2022/12/25 08:43:11;;;;;;;35.08;10.98;;;;;;;10.73;100.00;100983.94;5009606;28;20050;-73
2022/12/25 08:45:38;;;;;;;18.05;5.25;;;;;;;10.74;100.00;100964.16;5009661;28;20050;-73
2022/12/25 08:48:04;;;;;;;46.65;15.63;;;;;;;10.75;100.00;100960.19;5003697;28;20748;-74
2022/12/25 08:50:31;;;;;;;37.20;11.82;;;;;;;10.78;100.00;100961.38;5017765;28;20061;-75
2022/12/25 08:52:57;;;;;;;39.63;11.75;;;;;;;10.78;100.00;100975.22;5016503;28;20084;-75
2022/12/25 08:55:24;;;;;;;36.42;11.00;;;;;;;10.77;100.00;100980.00;5010306;28;20046;-73
2022/12/25 08:57:52;;;;;;;34.00;8.13;;;;;;;10.78;100.00;100997.38;5009798;28;20046;-75
2022/12/25 09:00:19;;;;;;;20.27;5.50;;;;;;;10.77;100.00;100995.78;5004813;28;20057;-74
2022/12/25 09:02:46;;;;;;;19.73;7.35;;;;;;;10.71;100.00;100998.16;5003544;28;20046;-75
2022/12/25 09:05:12;;;;;;;41.72;13.55;;;;;;;10.76;100.00;100992.22;5012858;28;20487;-73
2022/12/25 09:07:39;;;;;;;58.92;18.52;;;;;;;10.77;100.00;100979.19;4991169;28;20050;-76
2022/12/25 09:10:06;;;;;;;17.52;4.75;;;;;;;10.77;100.00;100980.00;4984290;28;20037;-74
2022/12/25 09:12:32;;;;;;;14.77;4.10;;;;;;;10.81;100.00;100971.69;4983760;28;20042;-74
2022/12/25 09:14:59;;;;;;;16.27;4.57;;;;;;;10.83;100.00;100961.78;4999576;28;20049;-73
2022/12/25 09:17:25;;;;;;;18.00;5.07;;;;;;;10.86;100.00;100958.25;4991817;28;20948;-74
2022/12/25 09:19:52;;;;;;;16.23;5.25;;;;;;;10.90;100.00;100963.78;4981469;28;20046;-73
2022/12/25 09:22:18;;;;;;;15.48;4.32;;;;;;;10.93;100.00;100952.72;4996496;28;20049;-75
2022/12/25 09:24:45;;;;;;;18.65;4.50;;;;;;;10.95;100.00;100960.63;4981187;28;20060;-74
2022/12/25 09:27:11;;;;;;;17.10;4.65;;;;;;;10.98;100.00;100957.88;4986375;28;20056;-73
2022/12/25 09:29:39;;;;;;;17.67;5.47;;;;;;;10.98;100.00;100946.00;5000256;28;20046;-72
2022/12/25 09:32:06;;;;;;;17.08;5.07;;;;;;;11.01;100.00;100953.50;4990026;28;20076;-75
2022/12/25 09:34:32;;;;;;;20.77;5.70;;;;;;;11.01;100.00;100962.63;4993114;28;20049;-74
2022/12/25 09:36:59;;;;;;;16.27;4.85;;;;;;;11.04;100.00;100955.50;4992948;28;20368;-74
2022/12/25 09:39:25;;;;;;;17.77;6.97;;;;;;;11.02;100.00;100971.69;4987657;28;20057;-75
2022/12/25 09:42:00;;;;;;;16.20;4.13;;;;;;;11.02;100.00;100975.28;4992853;28;20050;-74
2022/12/25 09:44:34;;;;;;;17.13;4.93;;;;;;;11.00;100.00;100987.94;4989082;28;20048;-74
2022/12/25 09:47:14;;;;;;;10.30;3.90;;;;;;;10.96;100.00;100987.13;4989927;28;20062;-75
2022/12/25 09:49:52;;;;;;;17.15;4.88;;;;;;;10.99;100.00;100995.44;4990100;28;20292;-74
2022/12/25 09:52:24;;;;;;;17.90;4.70;;;;;;;10.97;100.00;100994.25;4995108;28;20042;-76
2022/12/25 09:55:02;;;;;;;16.48;5.95;;;;;;;10.94;100.00;100997.81;4983737;28;20849;-76
2022/12/25 09:57:28;;;;;;;15.25;4.28;;;;;;;10.91;100.00;101010.47;4993930;28;20959;-75
2022/12/25 09:59:55;;;;;;;16.63;4.38;;;;;;;10.93;100.00;101012.84;4995625;28;20193;-75
2022/12/25 10:02:40;;;;;;;14.65;4.40;;;;;;;10.89;100.00;101004.50;4988942;28;20041;-75
2022/12/25 10:05:46;;;;;;;16.65;4.30;;;;;;;10.87;100.00;101012.41;4990313;28;20073;-75
2022/12/25 10:08:34;;;;;;;19.00;4.60;;;;;;;10.87;100.00;100995.03;4982034;28;20057;-74
2022/12/25 10:11:24;;;;;;;19.45;5.22;;;;;;;10.86;100.00;100979.59;4985131;28;20049;-75
2022/12/25 10:13:59;;;;;;;18.17;6.78;;;;;;;10.87;100.00;100979.19;4987257;28;21906;-76
2022/12/25 10:16:35;;;;;;;;;;;;;;;10.88;100.00;100968.91;5003173;28;20438;-74
2022/12/25 10:19:13;;;;;;;21.88;5.72;;;;;;;10.91;100.00;100965.38;4984354;28;19928;-74
2022/12/25 10:21:41;;;;;;;21.05;6.93;;;;;;;10.92;100.00;100967.75;4986900;28;20045;-75
2022/12/25 10:24:15;;;;;;;26.35;11.23;;;;;;;10.89;100.00;100948.34;4996237;28;20049;-74
2022/12/25 10:26:41;;;;;;;18.23;6.70;;;;;;;10.95;100.00;100947.59;4987892;28;20064;-76
2022/12/25 10:29:15;;;;;;;20.50;6.72;;;;;;;10.98;100.00;100934.91;4983456;28;20884;-74
2022/12/25 10:31:47;;;;;;;21.60;6.72;;;;;;;10.98;100.00;100921.88;4984844;28;20900;-76
2022/12/25 10:34:15;;;;;;;19.15;7.03;;;;;;;11.04;100.00;100900.13;4983132;28;20516;-74
2022/12/25 10:36:44;;;;;;;21.73;6.55;;;;;;;11.04;100.00;100894.59;4993203;28;20101;-77
2022/12/25 10:39:16;;;;;;;23.42;5.88;;;;;;;11.06;100.00;100898.53;4993675;28;20053;-75
2022/12/25 10:41:52;;;;;;;14.82;5.25;;;;;;;11.09;100.00;100911.59;4993674;28;20049;-73
2022/12/25 10:44:23;;;;;;;17.77;5.07;;;;;;;11.14;100.00;100905.63;5004958;28;20061;-74
2022/12/25 10:46:54;;;;;;;11.80;4.28;;;;;;;11.16;100.00;100906.03;5004868;28;20057;-75
2022/12/25 10:49:23;;;;;;;10.52;3.33;;;;;;;11.19;100.00;100910.00;5012333;28;20070;-75
2022/12/25 10:51:50;;;;;;;10.30;3.83;;;;;;;11.24;100.00;100912.38;5025208;28;20590;-74
2022/12/25 10:54:27;;;;;;;11.00;4.22;;;;;;;11.19;100.00;100915.53;5011895;28;20083;-73
2022/12/25 10:56:55;;;;;;;19.58;4.80;;;;;;;11.24;100.00;100921.47;5021215;28;20058;-73
2022/12/25 10:59:23;;;;;;;17.67;4.68;;;;;;;11.25;100.00;100913.94;5023822;28;20049;-73
2022/12/25 11:01:49;;;;;;;14.57;5.38;;;;;;;11.25;100.00;100891.78;5007792;28;22387;-73
2022/12/25 11:04:25;;;;;;;19.35;6.85;;;;;;;11.28;100.00;100893.78;4994329;28;20073;-74
2022/12/25 11:07:02;;;;;;;14.70;4.30;;;;;;;11.30;100.00;100892.19;5001338;28;20057;-73
2022/12/25 11:09:28;;;;;;;17.52;5.03;;;;;;;11.29;100.00;100878.72;5019369;28;20141;-74
2022/12/25 11:11:55;;;;;;;14.65;5.10;;;;;;;11.27;100.00;100870.03;5015425;28;20060;-73
2022/12/25 11:14:22;;;;;;;15.40;5.60;;;;;;;11.22;100.00;100878.75;5017162;28;20073;-71
2022/12/25 11:16:49;;;;;;;15.43;4.78;;;;;;;11.21;100.00;100886.28;5022368;28;20041;-74
2022/12/25 11:19:24;;;;;;;16.65;5.88;;;;;;;11.25;100.00;100875.19;5020660;28;20045;-72
2022/12/25 11:21:54;;;;;;;19.13;6.10;;;;;;;11.24;100.00;100876.38;5009359;28;20053;-73
2022/12/25 11:24:24;;;;;;;19.70;6.07;;;;;;;11.25;100.00;100861.31;5013369;28;20058;-73
2022/12/25 11:26:57;;;;;;;17.60;5.38;;;;;;;11.26;100.00;100857.34;5014775;28;20160;-71
2022/12/25 11:29:43;;;;;;;17.00;5.20;;;;;;;11.27;100.00;100850.66;5019694;28;20041;-74
2022/12/25 11:32:34;;;;;;;14.57;5.50;;;;;;;11.27;100.00;100845.88;5017978;28;20054;-71
2022/12/25 11:35:01;;;;;;;17.75;6.45;;;;;;;11.28;100.00;100838.38;5003018;28;20180;-71
2022/12/25 11:37:42;;;;;;;19.50;7.00;;;;;;;11.28;100.00;100836.41;5021037;28;20041;-74
2022/12/25 11:40:15;;;;;;;21.17;7.35;;;;;;;11.30;100.00;100831.25;5009017;28;20081;-75
2022/12/25 11:42:48;;;;;;;23.08;7.68;;;;;;;11.30;100.00;100824.94;5016217;28;20049;-72
2022/12/25 11:45:19;;;;;;;24.30;9.68;;;;;;;11.34;100.00;100820.94;5021561;28;20511;-74
2022/12/25 11:47:55;;;;;;;30.75;10.43;;;;;;;11.36;100.00;100817.75;5014279;28;20597;-71
2022/12/25 11:50:34;;;;;;;25.45;8.75;;;;;;;11.38;100.00;100815.41;5007149;28;20049;-72
2022/12/25 11:53:25;;;;;;;17.90;6.63;;;;;;;11.40;100.00;100793.59;5009657;28;20806;-73
2022/12/25 11:55:58;;;;;;;18.60;6.45;;;;;;;11.41;100.00;100779.34;5017517;28;20060;-72
2022/12/25 11:58:50;;;;;;;18.17;6.72;;;;;;;11.42;100.00;100775.41;5013547;28;20056;-71
2022/12/25 12:01:30;;;;;;;16.95;6.85;;;;;;;11.43;100.00;100760.38;5013222;28;20453;-73
2022/12/25 12:03:59;;;;;;;11.73;5.35;;;;;;;11.43;100.00;100751.25;5021700;28;20111;-74
2022/12/25 12:06:32;;;;;;;25.20;9.15;;;;;;;11.43;100.00;100745.72;5015614;28;20050;-73
2022/12/25 12:09:23;;;;;;;16.25;6.30;;;;;;;11.42;100.00;100744.94;5019673;28;20176;-73
2022/12/25 12:12:00;;;;;;;16.85;6.72;;;;;;;11.43;100.00;100729.09;5009239;28;20053;-74
2022/12/25 12:14:42;;;;;;;17.27;6.53;;;;;;;11.42;100.00;100733.06;5019572;28;20045;-75
2022/12/25 12:17:12;;;;;;;14.07;5.57;;;;;;;11.41;100.00;100745.34;5010699;28;20037;-74
2022/12/25 12:19:38;;;;;;;25.48;8.38;;;;;;;11.36;100.00;100737.44;5011283;28;20072;-72
2022/12/25 12:22:05;;;;;;;18.08;7.38;;;;;;;11.39;100.00;100750.47;5010362;28;20051;-74
2022/12/25 12:24:39;;;;;;;16.17;6.18;;;;;;;11.37;100.00;100750.88;5022892;28;20060;-75
2022/12/25 12:27:18;;;;;;;22.05;7.97;;;;;;;11.38;100.00;100735.84;5018914;28;20114;-75
2022/12/25 12:29:49;;;;;;;33.33;11.07;;;;;;;11.37;100.00;100733.50;5010569;28;20054;-73
2022/12/25 12:32:43;;;;;;;29.23;10.63;;;;;;;11.35;100.00;100739.44;5018156;28;20056;-75
2022/12/25 12:35:26;;;;;;;25.08;9.93;;;;;;;11.37;100.00;100730.72;5003764;28;20060;-72
2022/12/25 12:38:15;;;;;;;25.05;8.48;;;;;;;11.37;100.00;100728.72;5006232;28;20049;-73
2022/12/25 12:40:50;;;;;;;17.92;7.18;;;;;;;11.36;100.00;100732.69;5019437;28;20054;-73
2022/12/25 12:43:41;;;;;;;19.15;6.47;;;;;;;11.36;100.00;100732.69;5010671;28;20049;-72
2022/12/25 12:46:31;;;;;;;17.67;7.32;;;;;;;11.41;100.00;100731.50;5010900;28;20057;-74
2022/12/25 12:49:20;;;;;;;16.45;6.78;;;;;;;11.42;100.00;100721.97;5009088;28;20060;-74
2022/12/25 12:51:47;;;;;;;17.92;6.90;;;;;;;11.40;100.00;100724.34;5009774;28;20045;-77
2022/12/25 12:54:19;;;;;;;19.30;7.80;;;;;;;11.36;100.00;100726.34;5016004;28;20107;-73
2022/12/25 12:56:58;;;;;;;20.13;8.50;;;;;;;11.34;100.00;100721.22;5010746;28;20077;-74
2022/12/25 12:59:31;;;;;;;24.27;10.05;;;;;;;11.36;100.00;100720.81;5007440;28;20558;-74
2022/12/25 13:02:12;;;;;;;20.15;7.95;;;;;;;11.38;100.00;100710.13;5002669;28;20050;-73
2022/12/25 13:04:57;;;;;;;21.77;7.70;;;;;;;11.38;100.00;100693.50;5020050;28;20051;-75
2022/12/25 13:07:32;;;;;;;24.90;11.37;;;;;;;11.41;100.00;100681.63;5005552;28;20046;-71
2022/12/25 13:10:33;;;;;;;24.40;11.68;;;;;;;11.39;100.00;100689.53;5015481;28;20510;-72
2022/12/25 13:13:03;;;;;;;22.00;10.18;;;;;;;11.40;100.00;100688.34;5023060;28;20056;-74
2022/12/25 13:15:33;;;;;;;22.20;10.18;;;;;;;11.38;100.00;100683.22;5015294;28;20129;-74
2022/12/25 13:18:04;;;;;;;22.13;9.15;;;;;;;11.39;100.00;100678.44;5017464;28;20142;-74